Time;durP1;ratioP1;P1;durP2;ratioP2;P2;SDS_P1;SDS_P2;PMS_P1;PMS_P2;Temp;Humidity;BMP_temperature;BMP_pressure;BME280_temperature;BME280_humidity;BME280_pressure;Samples;Min_cycle;Max_cycle;Signal;HPM_P1;HPM_P2
2024/04/12 04:43:23;;;;;;;5.00;2.00;;;;;;;12.02;81.29;101042.03;110272;1248;22516;-51
2024/04/12 04:45:49;;;;;;;7.80;2.00;;;;;;;11.98;81.68;101044.27;112544;1237;22518;-51
2024/04/12 04:48:16;;;;;;;7.00;1.70;;;;;;;11.97;81.87;101042.36;112956;1234;23100;-51
2024/04/12 04:50:43;;;;;;;4.20;2.40;;;;;;;11.98;81.97;101040.78;113032;1244;22225;-50
2024/04/12 04:53:11;;;;;;;9.50;2.50;;;;;;;12.02;82.22;101042.73;113079;1245;22536;-50
2024/04/12 04:55:39;;;;;;;13.70;3.50;;;;;;;12.07;82.64;101044.51;113039;1247;22387;-43
2024/04/12 04:58:08;;;;;;;11.50;2.70;;;;;;;12.14;82.99;101040.35;113091;1247;22399;-43
2024/04/12 05:00:40;;;;;;;18.90;3.10;;;;;;;12.26;83.07;101038.66;113040;1247;22432;-43
2024/04/12 05:03:07;;;;;;;14.90;3.10;;;;;;;12.39;82.75;101040.29;113053;1247;22475;-43
2024/04/12 05:05:38;;;;;;;6.80;1.90;;;;;;;12.52;82.17;101035.98;112177;1237;23231;-42
2024/04/12 05:08:08;;;;;;;9.10;2.10;;;;;;;12.65;81.94;101037.77;113048;1247;23237;-43
2024/04/12 05:10:35;;;;;;;10.00;2.10;;;;;;;12.77;81.25;101032.73;112911;1247;22706;-49
2024/04/12 05:13:05;;;;;;;8.10;2.50;;;;;;;12.88;80.59;101033.27;113016;1237;22548;-50
2024/04/12 05:18:08;;;;;;;4.50;2.20;;;;;;;13.13;79.44;101032.45;112945;1247;22390;-49
2024/04/12 05:20:39;;;;;;;10.80;2.70;;;;;;;13.27;78.69;101026.19;112948;1247;22385;-50
2024/04/12 05:23:20;;;;;;;4.50;2.10;;;;;;;13.43;77.14;101026.02;112887;1247;22388;-50
2024/04/12 05:25:50;;;;;;;7.10;2.60;;;;;;;13.57;75.88;101027.23;112356;1243;24314;-49
2024/04/12 05:28:19;;;;;;;7.50;1.80;;;;;;;13.70;75.09;101021.80;112049;1240;23015;-44
2024/04/12 05:31:13;;;;;;;7.70;1.90;;;;;;;13.83;74.46;101024.05;112799;1247;22925;-43
2024/04/12 05:34:12;;;;;;;5.80;2.00;;;;;;;13.94;72.91;101025.27;112493;1248;22555;-44
2024/04/12 05:37:16;;;;;;;6.30;2.00;;;;;;;14.03;72.50;101027.52;112184;1247;22581;-44
2024/04/12 05:40:52;;;;;;;5.60;2.20;;;;;;;14.15;71.13;101024.84;112387;1247;22496;-43
2024/04/12 05:50:07;;;;;;;12.20;1.80;;;;;;;14.58;66.27;101021.55;112852;1247;22370;-49
2024/04/12 05:53:11;;;;;;;3.40;1.40;;;;;;;14.78;65.32;101024.07;112880;1247;22379;-50
2024/04/12 05:55:44;;;;;;;8.10;1.70;;;;;;;14.92;63.91;101023.29;112886;1247;22378;-50
2024/04/12 05:58:17;;;;;;;7.90;1.80;;;;;;;15.07;63.32;101023.89;112964;1247;22419;-50
2024/04/12 06:00:47;;;;;;;5.00;1.60;;;;;;;15.22;62.15;101030.64;112920;1247;22852;-48
2024/04/12 06:03:14;;;;;;;10.20;2.00;;;;;;;15.32;60.20;101028.64;112969;1247;23019;-49
2024/04/12 06:05:45;;;;;;;6.80;2.20;;;;;;;15.37;59.83;101024.20;112975;1247;23220;-50
2024/04/12 06:08:12;;;;;;;7.90;2.00;;;;;;;15.44;59.43;101026.24;112849;1247;22846;-51
2024/04/12 06:10:46;;;;;;;4.40;1.30;;;;;;;15.50;58.96;101026.90;112836;1247;23157;-50
2024/04/12 06:13:16;;;;;;;6.90;1.90;;;;;;;15.56;58.79;101027.02;112839;1247;23253;-50
2024/04/12 06:15:43;;;;;;;4.80;1.90;;;;;;;15.63;58.37;101027.86;112532;1247;23376;-43
2024/04/12 06:18:16;;;;;;;5.40;1.70;;;;;;;15.74;58.33;101024.77;112452;1247;22676;-48
2024/04/12 06:20:44;;;;;;;9.30;1.70;;;;;;;15.86;57.89;101025.54;112724;1247;23337;-45
2024/04/12 06:34:18;;;;;;;18.40;2.30;;;;;;;16.24;54.62;101025.66;111393;1247;22473;-49
2024/04/12 06:36:46;;;;;;;4.00;1.40;;;;;;;16.28;54.80;101028.23;112664;1247;24286;-50
2024/04/12 06:39:14;;;;;;;4.60;2.30;;;;;;;16.35;54.70;101026.05;112596;1247;24143;-52
2024/04/12 06:41:45;;;;;;;5.80;1.70;;;;;;;16.43;54.92;101020.14;112175;1247;22458;-42
2024/04/12 06:44:19;;;;;;;11.40;2.10;;;;;;;16.50;53.61;101020.04;112460;1247;22482;-44
2024/04/12 06:46:57;;;;;;;4.70;1.80;;;;;;;16.53;53.19;101017.02;113097;1247;22937;-42
2024/04/12 06:49:44;;;;;;;9.70;1.70;;;;;;;16.57;53.16;101011.49;113057;1247;22131;-44
2024/04/12 06:52:12;;;;;;;4.50;2.00;;;;;;;16.64;52.76;101012.29;113039;1247;22379;-50
2024/04/12 06:54:44;;;;;;;3.50;1.70;;;;;;;16.72;53.48;101012.03;113036;1247;22240;-46
2024/04/12 06:57:21;;;;;;;3.60;1.60;;;;;;;16.84;52.79;101013.10;113065;1247;22454;-44
2024/04/12 06:59:55;;;;;;;3.80;1.40;;;;;;;16.97;52.81;101010.63;112713;1247;25468;-44
2024/04/12 07:02:26;;;;;;;4.60;1.30;;;;;;;17.10;51.74;101007.79;112584;1247;23234;-50
2024/04/12 07:04:54;;;;;;;3.60;1.50;;;;;;;17.17;49.65;101005.55;113044;1247;22390;-45
2024/04/12 07:07:24;;;;;;;5.50;1.80;;;;;;;17.16;48.91;101001.86;112978;1247;22729;-44
2024/04/12 07:09:57;;;;;;;2.40;1.10;;;;;;;17.13;49.05;101005.09;112946;1247;23672;-44
2024/04/12 07:12:31;;;;;;;7.80;1.70;;;;;;;17.13;47.85;101005.27;112767;1247;23109;-45
2024/04/12 07:15:10;;;;;;;5.10;1.80;;;;;;;17.07;47.56;101003.95;112465;1243;22596;-50
2024/04/12 07:17:40;;;;;;;7.30;1.50;;;;;;;17.01;47.00;101005.27;112102;1247;22645;-50
2024/04/12 07:20:13;;;;;;;5.70;1.30;;;;;;;16.98;47.09;101003.89;112193;1247;22500;-45
2024/04/12 07:22:46;;;;;;;3.60;1.40;;;;;;;17.01;46.60;101003.32;111423;1247;23233;-43
2024/04/12 07:25:15;;;;;;;5.40;1.30;;;;;;;17.08;46.86;101001.83;112906;1247;23368;-50
2024/04/12 07:27:42;;;;;;;7.40;1.50;;;;;;;17.19;46.78;101003.58;112974;1246;22594;-43
2024/04/12 07:30:11;;;;;;;7.90;2.40;;;;;;;17.35;46.16;100998.55;112836;1247;134447;-44
2024/04/12 07:32:38;;;;;;;3.90;1.30;;;;;;;17.52;45.54;100998.98;112715;1246;23551;-44
2024/04/12 07:38:07;;;;;;;3.70;1.40;;;;;;;17.70;43.60;100997.42;112353;1253;22510;-43
2024/04/12 07:40:39;;;;;;;3.30;1.60;;;;;;;17.74;41.60;101001.61;112223;1253;22920;-44
2024/04/12 07:43:11;;;;;;;2.50;1.10;;;;;;;17.78;40.76;100999.41;111977;1238;22524;-48
2024/04/12 07:45:42;;;;;;;4.00;1.30;;;;;;;17.85;40.45;100997.71;111894;1253;22639;-52
2024/04/12 07:50:59;;;;;;;3.70;0.80;;;;;;;18.05;39.93;100987.61;112450;1253;22744;-52
2024/04/12 07:53:30;;;;;;;3.40;1.20;;;;;;;18.17;39.20;100992.83;111944;1253;22509;-45
2024/04/12 07:56:09;;;;;;;3.40;0.90;;;;;;;18.23;38.51;100990.06;111636;1253;22498;-52
2024/04/12 07:58:40;;;;;;;3.60;1.30;;;;;;;18.26;38.73;100988.77;112362;1253;22544;-52
2024/04/12 08:01:25;;;;;;;3.00;1.00;;;;;;;18.31;38.46;100983.18;112240;1253;22645;-44
2024/04/12 08:04:15;;;;;;;3.90;1.10;;;;;;;18.43;39.52;100981.34;111339;1249;23014;-44
2024/04/12 08:06:57;;;;;;;3.40;1.30;;;;;;;18.55;39.08;100986.21;111891;1253;22604;-52
2024/04/12 08:09:52;;;;;;;4.40;1.00;;;;;;;18.65;39.46;100982.11;111475;1253;23250;-46
2024/04/12 08:12:31;;;;;;;8.80;1.40;;;;;;;18.76;39.16;100977.11;111436;1253;23034;-45
2024/04/12 08:15:06;;;;;;;4.60;1.40;;;;;;;18.89;38.96;100977.88;111242;1246;25000;-45
2024/04/12 08:17:48;;;;;;;5.80;1.40;;;;;;;19.01;39.00;100977.76;112445;1247;22940;-45
2024/04/12 08:20:25;;;;;;;9.70;1.10;;;;;;;19.10;38.66;100979.64;112798;1247;22489;-45
2024/04/12 08:22:59;;;;;;;2.80;1.20;;;;;;;19.14;36.65;100985.05;112953;1247;22246;-45
2024/04/12 08:25:51;;;;;;;4.60;1.20;;;;;;;19.20;36.48;100983.14;112973;1247;22406;-53
2024/04/12 08:28:40;;;;;;;11.00;1.10;;;;;;;19.31;37.26;100969.59;112981;1247;22373;-54
2024/04/12 08:31:10;;;;;;;3.40;1.10;;;;;;;19.45;36.92;100971.71;112930;1247;23130;-51
2024/04/12 08:33:42;;;;;;;2.50;0.90;;;;;;;19.53;36.64;100975.02;112861;1247;22942;-54
2024/04/12 08:36:16;;;;;;;6.30;1.50;;;;;;;19.61;35.40;100977.33;111818;1247;23337;-47
2024/04/12 08:41:31;;;;;;;2.30;1.20;;;;;;;19.72;35.07;100969.43;112710;1247;22502;-55
2024/04/12 08:43:59;;;;;;;2.40;1.30;;;;;;;19.78;35.18;100970.34;111832;1244;22404;-54
2024/04/12 08:46:33;;;;;;;2.70;1.00;;;;;;;19.79;35.04;100971.71;112420;1247;22496;-47
2024/04/12 08:49:13;;;;;;;3.40;1.10;;;;;;;19.82;35.15;100959.59;112577;1247;24208;-53
2024/04/12 08:51:46;;;;;;;4.40;1.30;;;;;;;19.88;34.99;100960.84;111710;1247;22491;-46
2024/04/12 08:54:15;;;;;;;3.90;1.20;;;;;;;19.91;34.76;100956.70;112932;1247;22409;-47
2024/04/12 08:56:45;;;;;;;5.40;1.10;;;;;;;19.97;35.58;100954.57;113165;1247;22375;-54
2024/04/12 08:59:17;;;;;;;4.40;0.70;;;;;;;20.12;35.33;100961.41;112933;1247;22633;-54
2024/04/12 09:01:55;;;;;;;4.20;1.30;;;;;;;20.26;34.15;100966.65;112518;1247;22264;-50
2024/04/12 09:04:34;;;;;;;5.00;1.30;;;;;;;20.31;33.43;100965.64;112851;1247;23801;-53
2024/04/12 09:07:01;;;;;;;4.50;1.00;;;;;;;20.26;32.83;100962.60;113049;1247;22859;-54
2024/04/12 09:09:30;;;;;;;2.20;0.80;;;;;;;20.19;33.05;100957.67;112003;1247;23023;-54
2024/04/12 09:12:01;;;;;;;2.50;1.20;;;;;;;20.21;33.83;100957.95;112895;1247;22868;-46
2024/04/12 09:14:35;;;;;;;3.20;1.30;;;;;;;20.19;32.56;100956.05;112179;1247;23371;-53
2024/04/12 09:18:14;;;;;;;2.30;0.90;;;;;;;20.15;32.81;100955.49;112096;1247;23598;-45
2024/04/12 09:20:44;;;;;;;1.60;0.90;;;;;;;20.11;32.41;100954.16;112409;1247;22442;-45
2024/04/12 09:23:14;;;;;;;3.70;1.50;;;;;;;20.08;33.21;100954.09;112810;1247;22498;-52
2024/04/12 09:25:44;;;;;;;5.80;1.50;;;;;;;20.06;33.60;100958.22;113040;1247;22451;-55
2024/04/12 09:28:16;;;;;;;6.40;1.00;;;;;;;20.08;33.06;100951.41;112948;1247;23321;-54
2024/04/12 09:33:31;;;;;;;2.00;1.20;;;;;;;20.19;33.10;100951.83;113063;1247;22373;-54
2024/04/12 09:36:13;;;;;;;2.20;1.20;;;;;;;20.22;32.95;100949.77;113081;1247;22623;-46
2024/04/12 09:38:42;;;;;;;3.60;1.30;;;;;;;20.23;32.28;100947.27;113076;1247;22713;-45
2024/04/12 09:41:31;;;;;;;4.30;1.60;;;;;;;20.23;32.44;100940.34;113067;1247;23740;-45
2024/04/12 09:44:00;;;;;;;7.80;1.30;;;;;;;20.26;32.31;100936.37;112934;1247;22220;-46
2024/04/12 09:46:46;;;;;;;1.30;1.00;;;;;;;20.28;32.74;100936.30;113018;1247;22418;-46
2024/04/12 10:37:28;;;;;;;2.00;1.20;;;;;;;22.54;27.71;100883.73;112813;1247;22429;-53
2024/04/12 10:39:58;;;;;;;5.30;1.00;;;;;;;22.81;26.86;100877.50;112765;1247;22486;-49
2024/04/12 10:42:25;;;;;;;3.30;1.30;;;;;;;23.14;26.91;100874.15;112762;1247;22494;-45
2024/04/12 10:44:56;;;;;;;4.10;1.30;;;;;;;23.47;26.48;100873.62;112954;1247;22641;-52
2024/04/12 10:47:23;;;;;;;2.50;1.10;;;;;;;23.77;25.69;100872.98;112055;1247;22511;-52
2024/04/12 10:49:51;;;;;;;14.10;1.70;;;;;;;24.01;25.42;100868.53;112653;1247;22523;-47
2024/04/12 10:52:28;;;;;;;4.20;1.00;;;;;;;24.15;24.04;100867.84;111650;1247;23205;-47
2024/04/12 10:55:08;;;;;;;2.40;1.20;;;;;;;24.29;23.77;100860.76;112283;1247;22456;-52
2024/04/12 10:57:42;;;;;;;1.70;0.90;;;;;;;24.43;23.78;100854.77;112593;1247;22341;-53
2024/04/12 11:00:27;;;;;;;3.20;1.30;;;;;;;24.72;24.26;100848.34;112628;1247;22434;-52
2024/04/12 11:02:59;;;;;;;;;;;;;;;24.93;24.49;100845.86;112388;1247;22548;-48
2024/04/12 11:08:06;;;;;;;3.40;1.20;;;;;;;24.95;24.20;100844.14;112845;1246;22475;-49
2024/04/12 11:11:15;;;;;;;7.50;1.10;;;;;;;24.71;24.47;100842.87;112525;1247;23151;-43
2024/04/12 11:13:47;;;;;;;4.10;1.60;;;;;;;24.45;25.52;100832.92;112810;1248;22824;-45
2024/04/12 11:33:04;;;;;;;7.00;1.40;;;;;;;23.13;26.43;100805.72;112828;1248;23574;-48
2024/04/12 11:35:34;;;;;;;4.00;1.20;;;;;;;23.01;26.25;100807.64;112663;1248;22358;-45
2024/04/12 11:38:04;;;;;;;5.40;1.40;;;;;;;22.95;26.42;100806.17;112908;1248;22400;-49
2024/04/12 11:40:37;;;;;;;5.60;1.70;;;;;;;22.91;26.20;100799.74;112705;1248;22426;-56
2024/04/12 11:43:06;;;;;;;3.00;1.30;;;;;;;22.84;26.36;100792.73;112174;1242;25222;-46
2024/04/12 11:45:41;;;;;;;8.30;1.30;;;;;;;22.77;26.80;100787.66;112278;1242;22451;-52
2024/04/12 11:48:14;;;;;;;3.10;1.50;;;;;;;22.76;26.83;100785.41;112720;1248;22530;-46
2024/04/12 11:50:43;;;;;;;8.30;1.60;;;;;;;22.74;26.88;100784.42;111833;1248;22476;-57
2024/04/12 11:53:10;;;;;;;3.70;1.60;;;;;;;22.72;26.97;100784.17;112663;1248;22408;-46
2024/04/12 11:55:39;;;;;;;3.10;1.20;;;;;;;22.66;26.93;100784.07;112717;1248;22295;-47
2024/04/12 11:58:08;;;;;;;3.80;1.40;;;;;;;22.56;27.04;100783.80;112742;1248;22915;-52
2024/04/12 12:00:37;;;;;;;4.80;1.40;;;;;;;22.48;27.63;100772.58;112854;1248;22389;-54
2024/04/12 12:03:04;;;;;;;7.70;1.70;;;;;;;22.46;27.50;100776.05;112886;1248;22530;-52
2024/04/12 12:05:37;;;;;;;3.40;1.40;;;;;;;22.46;27.75;100777.83;112917;1248;22555;-47
2024/04/12 12:08:05;;;;;;;7.00;1.60;;;;;;;22.48;27.68;100768.66;112932;1248;22469;-47
2024/04/12 12:10:37;;;;;;;5.10;1.60;;;;;;;22.56;27.45;100767.80;112889;1248;22246;-47
2024/04/12 12:13:04;;;;;;;7.40;2.20;;;;;;;22.64;26.85;100770.45;112930;1248;22475;-53
2024/04/12 12:15:32;;;;;;;2.60;1.40;;;;;;;22.60;26.38;100771.36;112997;1248;22417;-53
2024/04/12 12:17:58;;;;;;;7.20;2.00;;;;;;;22.50;26.61;100761.10;113003;1248;23263;-52
2024/04/12 12:20:26;;;;;;;6.50;2.40;;;;;;;22.44;27.22;100764.91;112882;1248;22423;-54
2024/04/12 12:22:53;;;;;;;11.60;2.00;;;;;;;22.34;27.68;100760.35;112903;1248;22531;-46
2024/04/12 12:25:21;;;;;;;6.40;2.10;;;;;;;22.24;27.95;100755.23;112992;1248;22303;-47
2024/04/12 12:27:50;;;;;;;13.00;2.70;;;;;;;22.18;28.70;100751.23;113015;1248;22392;-48
2024/04/12 12:30:18;;;;;;;9.30;2.40;;;;;;;22.20;28.48;100749.20;113057;1248;22499;-54
2024/04/12 12:32:46;;;;;;;8.00;2.70;;;;;;;22.14;28.33;100749.08;112407;1248;22492;-52
2024/04/12 12:35:21;;;;;;;7.40;2.70;;;;;;;22.07;28.66;100747.73;112285;1248;22659;-45
2024/04/12 12:37:48;;;;;;;9.80;2.70;;;;;;;22.06;28.49;100744.95;112321;1248;22287;-45
2024/04/12 12:40:21;;;;;;;9.10;2.80;;;;;;;22.02;28.56;100747.23;113121;1248;22289;-53
2024/04/12 12:42:47;;;;;;;6.90;2.50;;;;;;;22.02;28.32;100746.34;113107;1248;23345;-52
2024/04/12 12:45:15;;;;;;;7.90;2.30;;;;;;;21.99;28.46;100744.88;113128;1248;23097;-46
2024/04/12 12:47:43;;;;;;;9.80;2.60;;;;;;;21.99;28.07;100741.48;112028;1248;25227;-46
2024/04/12 12:50:19;;;;;;;5.90;2.00;;;;;;;22.05;28.19;100739.83;111065;1248;25390;-47
2024/04/12 12:52:49;;;;;;;6.90;2.40;;;;;;;22.12;27.99;100736.23;112433;1248;22536;-53
2024/04/12 12:55:21;;;;;;;8.60;1.80;;;;;;;22.21;27.97;100734.23;110867;1248;22512;-52
2024/04/12 12:58:09;;;;;;;4.60;1.80;;;;;;;22.34;28.03;100729.23;110883;1248;22266;-52
2024/04/12 13:00:39;;;;;;;10.20;2.90;;;;;;;22.59;27.50;100737.06;110862;1248;22530;-52
2024/04/12 13:03:11;;;;;;;6.40;1.90;;;;;;;22.71;27.61;100740.65;113121;1248;23286;-46
2024/04/12 13:05:39;;;;;;;5.90;1.90;;;;;;;22.73;27.78;100736.33;111406;1248;22584;-46
2024/04/12 13:08:06;;;;;;;4.00;1.80;;;;;;;22.72;27.92;100731.55;110601;1248;24332;-52
2024/04/12 13:10:33;;;;;;;7.30;1.80;;;;;;;22.76;27.61;100732.61;110664;1248;22503;-51
2024/04/12 13:13:04;;;;;;;5.20;1.80;;;;;;;22.78;27.54;100725.94;113155;1248;23035;-46
2024/04/12 13:15:31;;;;;;;12.70;2.00;;;;;;;23.01;27.69;100720.15;113174;1248;22389;-46
2024/04/12 13:17:58;;;;;;;7.90;2.10;;;;;;;23.38;27.74;100719.55;112795;1248;23119;-52
2024/04/12 13:20:26;;;;;;;7.90;1.80;;;;;;;23.66;26.82;100718.76;112192;1248;22439;-46
2024/04/12 13:22:53;;;;;;;4.20;1.50;;;;;;;23.77;25.92;100710.96;113145;1248;22411;-47
2024/04/12 13:25:20;;;;;;;7.20;1.80;;;;;;;23.61;25.77;100710.29;113189;1248;22395;-52
2024/04/12 13:27:47;;;;;;;10.20;1.50;;;;;;;23.48;25.51;100710.70;113181;1248;22594;-52
2024/04/12 13:30:15;;;;;;;4.20;1.70;;;;;;;23.29;25.00;100708.36;112302;1248;24191;-46
2024/04/12 13:32:43;;;;;;;4.90;1.70;;;;;;;23.11;25.48;100711.17;111215;1248;23186;-47
2024/04/12 13:35:12;;;;;;;5.20;1.80;;;;;;;23.14;25.78;100706.26;110291;1248;22518;-46
2024/04/12 13:37:40;;;;;;;3.60;1.30;;;;;;;23.19;25.73;100698.70;112557;1248;22514;-47
2024/04/12 13:40:17;;;;;;;3.70;1.60;;;;;;;23.23;26.11;100695.30;111133;1248;22631;-53
2024/04/12 13:42:47;;;;;;;7.60;2.10;;;;;;;23.25;26.19;100688.11;110666;1248;22524;-50
2024/04/12 13:50:56;;;;;;;4.80;1.40;;;;;;;23.26;24.13;100693.77;109815;1248;24205;-46
2024/04/12 13:53:32;;;;;;;6.60;1.50;;;;;;;23.02;23.71;100689.52;110839;1248;25443;-48
2024/04/12 13:56:19;;;;;;;7.50;1.50;;;;;;;22.85;22.19;100692.21;111371;1248;22284;-46
2024/04/12 13:58:55;;;;;;;5.90;1.40;;;;;;;22.82;22.86;100692.49;111800;1248;25392;-48
2024/04/12 14:01:26;;;;;;;2.60;1.40;;;;;;;22.89;23.33;100689.77;112791;1248;22466;-54
2024/04/12 14:04:04;;;;;;;1.60;1.00;;;;;;;22.84;24.12;100682.27;113161;1248;23143;-49
2024/04/12 14:06:34;;;;;;;6.40;1.50;;;;;;;22.90;24.01;100674.41;112120;1248;23999;-53
2024/04/12 14:09:03;;;;;;;7.00;1.20;;;;;;;23.08;24.13;100671.64;110416;1248;25387;-46
2024/04/12 14:11:30;;;;;;;3.50;1.30;;;;;;;23.51;23.04;100671.56;110577;1248;22549;-54
2024/04/12 14:13:57;;;;;;;4.10;1.60;;;;;;;23.82;22.88;100666.21;110330;1248;24126;-53
2024/04/12 14:16:43;;;;;;;4.30;1.50;;;;;;;24.02;22.68;100665.20;110400;1248;25411;-54
2024/04/12 14:19:17;;;;;;;6.60;1.60;;;;;;;24.30;22.46;100662.75;110973;1248;22515;-52
2024/04/12 14:21:48;;;;;;;5.40;1.60;;;;;;;24.58;22.29;100657.73;110131;1248;22469;-52
